createdAt,value
2019-05-20T00:00:16.722Z,0.10
2019-05-20T00:04:21.641Z,0.10
2019-05-20T00:08:26.524Z,0.20
2019-05-20T00:12:31.426Z,0.30
2019-05-20T00:16:37.177Z,0.67
2019-05-20T00:20:42.145Z,0.40
2019-05-20T00:24:47.047Z,0.40
2019-05-20T00:28:52.013Z,0.00
2019-05-20T00:32:56.980Z,0.30
2019-05-20T00:37:01.898Z,0.50
2019-05-20T00:41:06.793Z,0.50
2019-05-20T00:45:12.429Z,0.10
2019-05-20T00:49:17.335Z,0.67
2019-05-20T00:53:22.250Z,0.00
2019-05-20T00:57:27.140Z,0.43
2019-05-20T01:01:32.040Z,0.13
2019-05-20T01:05:36.932Z,0.00
2019-05-20T01:09:41.831Z,0.60
2019-05-20T01:13:46.729Z,0.30
2019-05-20T01:17:51.617Z,0.37
2019-05-20T01:21:56.513Z,0.30
2019-05-20T01:26:01.408Z,0.13
2019-05-20T01:30:08.512Z,0.20
2019-05-20T01:34:13.412Z,0.10
2019-05-20T01:38:18.317Z,0.13
2019-05-20T01:42:23.213Z,0.40
2019-05-20T01:46:28.110Z,0.57
2019-05-20T01:50:33.014Z,0.33
2019-05-20T01:54:37.917Z,0.10
2019-05-20T01:58:42.799Z,0.00
2019-05-20T02:02:48.659Z,0.00
2019-05-20T02:06:53.558Z,0.20
2019-05-20T02:10:58.451Z,0.43
2019-05-20T02:15:11.830Z,0.10
2019-05-20T02:19:16.725Z,0.10
2019-05-20T02:23:21.610Z,0.20
2019-05-20T02:27:26.504Z,0.20
2019-05-20T02:31:31.412Z,0.10
2019-05-20T02:35:36.301Z,0.10
2019-05-20T02:39:41.207Z,0.50
2019-05-20T02:43:46.094Z,0.10
2019-05-20T02:47:52.061Z,0.27
2019-05-20T02:51:56.964Z,0.47
2019-05-20T02:56:01.938Z,0.00
2019-05-20T03:00:07.784Z,0.10
2019-05-20T03:04:13.203Z,0.10
2019-05-20T03:08:18.229Z,0.07
2019-05-20T03:12:23.130Z,0.40
2019-05-20T03:16:28.024Z,0.33
2019-05-20T03:20:32.930Z,0.40
2019-05-20T03:24:37.814Z,0.50
2019-05-20T03:28:42.789Z,0.47
2019-05-20T03:32:47.682Z,0.40
2019-05-20T03:36:52.583Z,0.20
2019-05-20T03:40:57.470Z,0.37
2019-05-20T03:45:02.742Z,0.10
2019-05-20T03:49:08.613Z,0.10
2019-05-20T03:53:13.516Z,0.10
2019-05-20T03:57:18.411Z,0.10
2019-05-20T04:01:23.320Z,0.07
2019-05-20T04:05:28.201Z,0.40
2019-05-20T04:09:33.105Z,0.60
2019-05-20T04:13:38.570Z,0.20
2019-05-20T04:17:43.483Z,0.70
2019-05-20T04:21:48.381Z,0.50
2019-05-20T04:25:54.238Z,0.53
2019-05-20T04:29:59.141Z,0.27
2019-05-20T04:34:04.042Z,0.10
2019-05-20T04:38:08.937Z,0.23
2019-05-20T04:42:13.845Z,0.20
2019-05-20T04:46:18.744Z,0.50
2019-05-20T04:50:23.640Z,0.80
2019-05-20T04:54:28.544Z,0.20
2019-05-20T04:58:33.429Z,0.37
2019-05-20T05:02:38.328Z,0.37
2019-05-20T05:06:43.284Z,0.13
2019-05-20T05:10:49.790Z,0.50
2019-05-20T05:14:55.765Z,0.43
2019-05-20T05:19:00.660Z,0.67
2019-05-20T05:23:05.561Z,1.17
2019-05-20T05:27:10.456Z,0.97
2019-05-20T05:31:15.361Z,0.77
2019-05-20T05:35:20.592Z,0.80
2019-05-20T05:39:25.495Z,0.40
2019-05-20T05:43:30.388Z,0.50
2019-05-20T05:47:36.248Z,0.40
2019-05-20T05:51:41.143Z,0.50
2019-05-20T05:55:46.041Z,0.87
2019-05-20T05:59:50.939Z,0.70
2019-05-20T06:03:55.836Z,0.40
2019-05-20T06:08:00.733Z,0.90
2019-05-20T06:12:05.630Z,0.47
2019-05-20T06:16:10.540Z,0.97
2019-05-20T06:20:15.861Z,0.90
2019-05-20T06:24:20.762Z,0.30
2019-05-20T06:28:25.650Z,0.63
2019-05-20T06:32:30.550Z,0.30
2019-05-20T06:36:37.171Z,1.67
2019-05-20T06:40:42.065Z,1.13
2019-05-20T06:44:53.146Z,0.73
2019-05-20T06:48:53.618Z,1.20
2019-05-20T06:52:58.518Z,0.60
2019-05-20T06:57:03.485Z,0.77
2019-05-20T07:01:08.418Z,0.27
2019-05-20T07:05:13.392Z,1.70
2019-05-20T07:09:18.272Z,1.03
2019-05-20T07:13:23.175Z,1.87
2019-05-20T07:17:28.078Z,1.40
2019-05-20T07:21:32.986Z,1.03
2019-05-20T07:25:37.883Z,0.40
2019-05-20T07:29:42.852Z,1.97
2019-05-20T07:33:47.754Z,1.67
2019-05-20T07:37:52.657Z,1.27
2019-05-20T07:41:57.556Z,0.60
2019-05-20T07:46:03.104Z,1.30
2019-05-20T07:50:10.329Z,1.20
2019-05-20T07:54:16.070Z,1.17
2019-05-20T07:58:24.273Z,0.30
2019-05-20T08:02:30.144Z,0.73
2019-05-20T08:06:35.030Z,2.77
2019-05-20T08:10:39.900Z,1.43
2019-05-20T08:14:44.798Z,0.63
2019-05-20T08:18:49.712Z,0.67
2019-05-20T08:22:54.599Z,0.50
2019-05-20T08:26:59.492Z,1.30
2019-05-20T08:31:04.464Z,0.97
2019-05-20T08:35:09.889Z,0.40
2019-05-20T08:39:14.798Z,2.07
2019-05-20T08:43:19.698Z,1.33
2019-05-20T08:47:24.607Z,1.07
2019-05-20T08:51:29.861Z,0.67
2019-05-20T08:55:35.797Z,1.70
2019-05-20T08:59:40.653Z,0.30
2019-05-20T09:03:45.546Z,0.17
2019-05-20T09:08:02.440Z,1.13
2019-05-20T09:11:57.123Z,0.62
2019-05-20T09:16:02.089Z,0.88
2019-05-20T09:20:08.396Z,0.25
2019-05-20T09:24:18.071Z,0.80
2019-05-20T09:28:20.928Z,0.85
2019-05-20T09:32:25.766Z,0.87
2019-05-20T09:36:30.656Z,0.20
2019-05-20T09:40:40.329Z,0.40
2019-05-20T09:44:46.211Z,0.40
2019-05-20T09:48:51.111Z,1.40
2019-05-20T09:52:55.992Z,0.93
2019-05-20T09:57:00.877Z,1.90
2019-05-20T10:01:06.848Z,0.70
2019-05-20T10:05:11.747Z,0.37
2019-05-20T10:09:16.649Z,1.05
2019-05-20T10:13:21.541Z,1.00
2019-05-20T10:17:27.395Z,0.70
2019-05-20T10:21:32.294Z,1.33
2019-05-20T10:25:37.198Z,1.17
2019-05-20T10:29:43.063Z,0.35
2019-05-20T10:33:48.034Z,0.50
2019-05-20T10:37:52.923Z,0.60
2019-05-20T10:41:57.817Z,1.10
2019-05-20T10:46:02.797Z,0.50
2019-05-20T10:50:07.926Z,0.65
2019-05-20T10:54:12.827Z,1.22
2019-05-20T10:58:17.733Z,0.88
2019-05-20T11:02:22.635Z,1.35
2019-05-20T11:06:27.536Z,0.53
2019-05-20T11:10:32.434Z,0.90
2019-05-20T11:14:37.340Z,0.93
2019-05-20T11:18:42.227Z,1.75
2019-05-20T11:22:47.122Z,2.35
2019-05-20T11:26:52.028Z,1.50
2019-05-20T11:30:56.927Z,0.65
2019-05-20T11:35:02.299Z,1.25
2019-05-20T11:39:07.660Z,2.20
2019-05-20T11:43:12.552Z,1.30
2019-05-20T11:47:17.450Z,1.82
2019-05-20T11:51:22.353Z,0.95
2019-05-20T11:55:27.299Z,1.20
2019-05-20T11:59:32.157Z,2.17
2019-05-20T12:03:37.055Z,1.15
2019-05-20T12:07:42.016Z,0.55
2019-05-20T12:11:46.884Z,1.22
2019-05-20T12:15:51.783Z,1.10
2019-05-20T12:19:57.746Z,0.93
2019-05-20T12:24:02.653Z,1.00
2019-05-20T12:28:07.543Z,2.72
2019-05-20T12:32:12.459Z,0.88
2019-05-20T12:36:18.313Z,0.85
2019-05-20T12:40:23.281Z,1.30
2019-05-20T12:44:28.171Z,1.77
2019-05-20T12:48:33.068Z,1.17
2019-05-20T12:52:39.104Z,1.62
2019-05-20T12:56:44.758Z,2.47
2019-05-20T13:00:50.027Z,2.77
2019-05-20T13:04:54.911Z,1.22
2019-05-20T13:08:59.815Z,2.60
2019-05-20T13:13:04.735Z,0.93
2019-05-20T13:17:09.603Z,1.70
2019-05-20T13:21:14.504Z,1.60
2019-05-20T13:25:20.930Z,0.73
2019-05-20T13:29:25.860Z,1.13
2019-05-20T13:33:30.743Z,2.23
2019-05-20T13:37:35.638Z,1.50
2019-05-20T13:41:40.538Z,2.13
2019-05-20T13:45:48.030Z,2.07
2019-05-20T13:49:52.140Z,1.80
2019-05-20T13:53:57.036Z,3.20
2019-05-20T13:58:02.073Z,1.80
2019-05-20T14:02:06.868Z,4.80
2019-05-20T14:06:11.808Z,1.93
2019-05-20T14:10:17.129Z,3.47
2019-05-20T14:14:22.018Z,2.53
2019-05-20T14:18:26.924Z,4.87
2019-05-20T14:22:31.812Z,3.73
2019-05-20T14:26:36.811Z,1.67
2019-05-20T14:30:41.711Z,3.97
2019-05-20T14:34:46.599Z,2.30
2019-05-20T14:38:51.499Z,0.97
2019-05-20T14:42:56.394Z,2.80
2019-05-20T14:47:01.319Z,1.40
2019-05-20T14:51:06.191Z,1.10
2019-05-20T14:55:11.235Z,0.23
2019-05-20T14:59:16.201Z,1.97
2019-05-20T15:03:21.114Z,1.90
2019-05-20T15:07:30.595Z,1.53
2019-05-20T15:11:38.097Z,3.23
2019-05-20T15:15:39.198Z,1.53
2019-05-20T15:19:44.092Z,1.60
2019-05-20T15:23:49.056Z,0.90
2019-05-20T15:27:54.780Z,2.57
2019-05-20T15:31:59.679Z,2.67
2019-05-20T15:36:04.732Z,1.80
2019-05-20T15:40:09.952Z,2.93
2019-05-20T15:44:14.839Z,2.63
2019-05-20T15:48:19.733Z,2.47
2019-05-20T15:52:24.716Z,2.77
2019-05-20T15:56:29.620Z,2.33
2019-05-20T16:00:34.525Z,1.40
2019-05-20T16:04:39.434Z,1.53
2019-05-20T16:08:44.336Z,2.77
2019-05-20T16:12:49.237Z,2.10
2019-05-20T16:16:54.132Z,1.93
2019-05-20T16:20:59.047Z,2.03
2019-05-20T16:25:08.494Z,1.93
2019-05-20T16:29:13.390Z,2.47
2019-05-20T16:33:18.278Z,2.70
2019-05-20T16:37:23.181Z,2.40
2019-05-20T16:41:28.076Z,1.37
2019-05-20T16:45:32.980Z,2.07
2019-05-20T16:49:37.876Z,2.13
2019-05-20T16:53:42.849Z,1.07
2019-05-20T16:57:47.688Z,1.83
2019-05-20T17:01:52.571Z,1.97
2019-05-20T17:05:57.477Z,1.57
2019-05-20T17:10:02.736Z,1.47
2019-05-20T17:14:10.592Z,1.87
2019-05-20T17:18:14.342Z,2.27
2019-05-20T17:22:19.237Z,1.67
2019-05-20T17:26:24.146Z,2.33
2019-05-20T17:30:29.033Z,3.63
2019-05-20T17:34:33.927Z,2.97
2019-05-20T17:38:38.823Z,1.23
2019-05-20T17:42:43.722Z,1.97
2019-05-20T17:46:48.686Z,1.07
2019-05-20T17:50:53.919Z,1.13
2019-05-20T17:54:59.783Z,2.23
2019-05-20T17:59:04.743Z,2.23
2019-05-20T18:03:09.648Z,2.73
2019-05-20T18:07:14.547Z,1.20
2019-05-20T18:11:19.576Z,1.27
2019-05-20T18:15:24.428Z,1.87
2019-05-20T18:19:29.322Z,1.80
2019-05-20T18:23:34.222Z,2.27
2019-05-20T18:27:39.349Z,1.93
2019-05-20T18:31:44.304Z,1.33
2019-05-20T18:35:49.212Z,1.83
2019-05-20T18:39:54.247Z,1.33
2019-05-20T18:43:59.150Z,1.33
2019-05-20T18:48:04.050Z,1.47
2019-05-20T18:52:08.947Z,1.93
2019-05-20T18:56:13.833Z,1.20
2019-05-20T19:00:19.546Z,1.40
2019-05-20T19:04:24.438Z,3.23
2019-05-20T19:08:29.400Z,2.10
2019-05-20T19:12:34.318Z,3.40
2019-05-20T19:16:39.208Z,1.53
2019-05-20T19:20:44.108Z,2.97
2019-05-20T19:24:49.004Z,2.40
2019-05-20T19:28:53.915Z,1.83
2019-05-20T19:32:58.806Z,2.17
2019-05-20T19:37:03.704Z,3.57
2019-05-20T19:41:08.670Z,2.50
2019-05-20T19:45:13.824Z,2.23
2019-05-20T19:49:18.726Z,1.70
2019-05-20T19:53:23.621Z,2.37
2019-05-20T19:57:29.588Z,2.20
2019-05-20T20:01:34.493Z,2.07
2019-05-20T20:05:39.394Z,2.33
2019-05-20T20:09:44.303Z,2.93
2019-05-20T20:13:49.216Z,2.47
2019-05-20T20:17:54.112Z,1.97
2019-05-20T20:21:59.078Z,2.47
2019-05-20T20:26:04.031Z,1.10
2019-05-20T20:30:09.473Z,1.63
2019-05-20T20:34:14.527Z,1.80
2019-05-20T20:38:19.414Z,1.70
2019-05-20T20:42:24.321Z,1.20
2019-05-20T20:46:29.225Z,2.53
2019-05-20T20:50:34.203Z,1.40
2019-05-20T20:54:39.106Z,1.50
2019-05-20T20:58:44.006Z,3.17
2019-05-20T21:02:53.145Z,1.50
2019-05-20T21:06:55.511Z,2.13
2019-05-20T21:11:00.414Z,2.23
2019-05-20T21:15:05.757Z,2.00
2019-05-20T21:19:10.655Z,4.10
2019-05-20T21:23:15.551Z,3.40
2019-05-20T21:27:20.469Z,2.70
2019-05-20T21:31:25.440Z,2.13
2019-05-20T21:35:30.343Z,2.53
2019-05-20T21:39:35.235Z,2.93
2019-05-20T21:43:40.144Z,2.40
2019-05-20T21:47:45.042Z,3.23
2019-05-20T21:51:49.948Z,2.10
2019-05-20T21:55:54.953Z,3.10
2019-05-20T21:59:59.847Z,2.77
2019-05-20T22:04:04.759Z,2.43
2019-05-20T22:08:09.663Z,3.20
2019-05-20T22:12:14.587Z,1.80
2019-05-20T22:16:19.509Z,2.07
2019-05-20T22:20:24.394Z,0.97
2019-05-20T22:24:29.303Z,1.17
2019-05-20T22:28:34.206Z,1.67
2019-05-20T22:32:39.105Z,0.97
2019-05-20T22:36:44.013Z,2.07
2019-05-20T22:40:48.908Z,1.37
2019-05-20T22:44:53.815Z,2.40
2019-05-20T22:48:58.733Z,1.80
2019-05-20T22:53:03.646Z,1.70
2019-05-20T22:57:08.543Z,0.77
2019-05-20T23:01:13.433Z,0.77
2019-05-20T23:05:18.342Z,2.70
2019-05-20T23:09:24.218Z,2.70
2019-05-20T23:13:29.146Z,2.43
2019-05-20T23:17:34.049Z,1.53
2019-05-20T23:21:38.937Z,1.10
2019-05-20T23:25:43.852Z,0.87
2019-05-20T23:29:48.757Z,0.80
2019-05-20T23:33:53.667Z,3.13
2019-05-20T23:37:58.573Z,2.57
2019-05-20T23:42:03.467Z,2.70
2019-05-20T23:46:08.368Z,1.90
2019-05-20T23:50:13.970Z,0.80
2019-05-20T23:54:18.857Z,0.80
2019-05-20T23:58:23.761Z,1.23
